Time;durP1;ratioP1;P1;durP2;ratioP2;P2;SDS_P1;SDS_P2;PMS_P1;PMS_P2;Temp;Humidity;BMP_temperature;BMP_pressure;BME280_temperature;BME280_humidity;BME280_pressure;Samples;Min_cycle;Max_cycle;Signal;HPM_P1;HPM_P2
2023/02/20 06:54:10;;;;;;;11.38;7.05;;;;;;;;;;10599151;27;20474;-82
2023/02/20 06:59:13;;;;;;;17.02;11.68;;;;;;;;;;10580466;28;20100;-79
2023/02/20 07:04:16;;;;;;;8.77;7.43;;;;;;;;;;10578531;28;20032;-80
2023/02/20 07:09:19;;;;;;;11.10;7.85;;;;;;;;;;10579987;28;20027;-80
2023/02/20 07:14:20;;;;;;;15.35;11.23;;;;;;;;;;10581342;28;20032;-81
2023/02/20 07:19:21;;;;;;;;;;;;;;;;;;10600394;28;20393;-81
2023/02/20 07:24:22;;;;;;;17.98;11.90;;;;;;;;;;10579484;28;19908;-81
2023/02/20 07:29:23;;;;;;;17.20;12.75;;;;;;;;;;10577847;28;20397;-81
2023/02/20 07:34:24;;;;;;;17.02;12.95;;;;;;;;;;10577742;28;20123;-81
2023/02/20 07:39:27;;;;;;;16.25;12.07;;;;;;;;;;10578617;28;20030;-81
2023/02/20 07:44:28;;;;;;;16.65;10.48;;;;;;;;;;10578905;28;20495;-80
2023/02/20 07:49:29;;;;;;;16.98;12.07;;;;;;;;;;10578047;28;20184;-82
2023/02/20 07:54:30;;;;;;;12.48;8.75;;;;;;;;;;10577492;28;20028;-81
2023/02/20 07:59:31;;;;;;;4.75;3.28;;;;;;;;;;10577377;28;20117;-78
2023/02/20 08:04:32;;;;;;;8.85;5.72;;;;;;;;;;10557116;28;20027;-80
2023/02/20 08:09:34;;;;;;;12.75;9.20;;;;;;;;;;10532947;28;20029;-79
2023/02/20 08:14:36;;;;;;;10.73;8.13;;;;;;;;;;10518932;28;20021;-80
2023/02/20 08:19:37;;;;;;;15.18;11.57;;;;;;;;;;10508720;28;20036;-80
2023/02/20 08:24:38;;;;;;;11.27;7.78;;;;;;;;;;10506129;28;20027;-80
2023/02/20 08:29:39;;;;;;;9.60;7.75;;;;;;;;;;10506166;28;20031;-79
2023/02/20 08:34:40;;;;;;;9.73;6.28;;;;;;;;;;10507535;28;20096;-79
2023/02/20 08:39:41;;;;;;;;;;;;;;;;;;10505870;28;20032;-80
2023/02/20 08:44:42;;;;;;;9.77;6.88;;;;;;;;;;10505420;28;19927;-79
2023/02/20 08:49:46;;;;;;;9.07;6.60;;;;;;;;;;10506215;28;20040;-80
2023/02/20 08:54:47;;;;;;;13.48;9.23;;;;;;;;;;10507423;28;20040;-81
2023/02/20 08:59:48;;;;;;;12.15;7.97;;;;;;;;;;10508116;28;20102;-80
2023/02/20 09:04:49;;;;;;;12.57;8.65;;;;;;;;;;10509626;28;20110;-80
2023/02/20 09:09:50;;;;;;;9.82;6.38;;;;;;;;;;10524789;28;20029;-81
2023/02/20 09:14:51;;;;;;;;;;;;;;;;;;10507445;28;20024;-81
2023/02/20 09:19:52;;;;;;;11.02;7.93;;;;;;;;;;10514680;28;19924;-80
2023/02/20 09:24:53;;;;;;;;;;;;;;;;;;10513762;28;20031;-80
2023/02/20 09:29:54;;;;;;;9.60;7.35;;;;;;;;;;10509432;28;19911;-80
2023/02/20 09:34:56;;;;;;;8.02;5.93;;;;;;;;;;10509233;28;20075;-81
2023/02/20 09:39:57;;;;;;;10.20;7.60;;;;;;;;;;10506469;28;20059;-81
2023/02/20 09:45:04;;;;;;;8.88;7.53;;;;;;;;;;10503269;28;20088;-81
2023/02/20 09:50:11;;;;;;;13.50;9.85;;;;;;;;;;10504693;28;20096;-80
2023/02/20 09:55:18;;;;;;;13.48;9.70;;;;;;;;;;10514016;28;20042;-81
2023/02/20 10:00:30;;;;;;;9.82;6.57;;;;;;;;;;10503740;28;20071;-80
2023/02/20 10:05:32;;;;;;;12.73;8.30;;;;;;;;;;10506604;28;20028;-81
2023/02/20 10:10:37;;;;;;;14.13;9.30;;;;;;;;;;10515683;28;20028;-80
2023/02/20 10:15:38;;;;;;;10.85;7.57;;;;;;;;;;10509867;28;20025;-80
2023/02/20 10:20:51;;;;;;;14.40;9.00;;;;;;;;;;10517006;28;20028;-80
2023/02/20 10:25:55;;;;;;;12.93;8.65;;;;;;;;;;10532075;28;20111;-80
2023/02/20 10:31:14;;;;;;;15.55;9.82;;;;;;;;;;10511735;28;20028;-80
2023/02/20 10:36:35;;;;;;;12.15;7.95;;;;;;;;;;10506790;28;20119;-80
2023/02/20 10:41:41;;;;;;;11.18;6.82;;;;;;;;;;10507478;28;20484;-82
2023/02/20 10:46:57;;;;;;;11.35;7.13;;;;;;;;;;10508658;28;20032;-79
2023/02/20 10:52:00;;;;;;;12.85;8.45;;;;;;;;;;10513815;28;20037;-80
2023/02/20 10:57:20;;;;;;;12.10;6.50;;;;;;;;;;10519188;28;20041;-81
2023/02/20 11:02:22;;;;;;;14.20;8.60;;;;;;;;;;10518428;28;20389;-79
2023/02/20 11:07:24;;;;;;;12.23;7.65;;;;;;;;;;10505846;28;20493;-79
2023/02/20 11:12:37;;;;;;;12.07;8.82;;;;;;;;;;10507309;28;20035;-80
2023/02/20 11:17:39;;;;;;;9.25;6.53;;;;;;;;;;10507028;28;20092;-80
2023/02/20 11:22:40;;;;;;;13.93;8.32;;;;;;;;;;10505786;28;20028;-80
2023/02/20 11:27:42;;;;;;;16.25;11.82;;;;;;;;;;10538854;28;20032;-80
2023/02/20 11:32:43;;;;;;;;;;;;;;;;;;10545073;28;20038;-81
2023/02/20 11:37:44;;;;;;;;;;;;;;;;;;10547711;28;20002;-79
2023/02/20 11:42:45;;;;;;;9.48;5.80;;;;;;;;;;10553852;28;19941;-80
2023/02/20 11:47:53;;;;;;;7.85;4.30;;;;;;;;;;10563821;28;20382;-81
2023/02/20 11:52:57;;;;;;;8.80;6.07;;;;;;;;;;10563207;28;20119;-82
2023/02/20 11:57:58;;;;;;;11.55;6.53;;;;;;;;;;10555160;28;20568;-82
2023/02/20 12:03:09;;;;;;;11.00;6.95;;;;;;;;;;10555207;28;20027;-82
2023/02/20 12:08:10;;;;;;;;;;;;;;;;;;10554740;28;20020;-82
2023/02/20 12:13:16;;;;;;;15.80;8.70;;;;;;;;;;10555029;28;19911;-81
2023/02/20 12:18:26;;;;;;;15.45;9.20;;;;;;;;;;10435376;22;20046;-83
2023/02/20 12:23:46;;;;;;;13.95;10.20;;;;;;;;;;10394585;28;20052;-82
2023/02/20 12:29:04;;;;;;;10.82;7.30;;;;;;;;;;10354584;28;20045;-82
2023/02/20 12:34:17;;;;;;;11.15;7.82;;;;;;;;;;10354336;28;20069;-83
2023/02/20 12:39:24;;;;;;;9.73;7.15;;;;;;;;;;10354012;28;20034;-82
2023/02/20 12:44:25;;;;;;;7.60;5.70;;;;;;;;;;10359500;28;20030;-82
2023/02/20 12:49:29;;;;;;;9.73;6.35;;;;;;;;;;10352180;28;20046;-82
2023/02/20 12:54:39;;;;;;;14.40;8.05;;;;;;;;;;10352130;28;20094;-81
2023/02/20 13:00:19;;;;;;;13.43;7.50;;;;;;;;;;10350177;28;20132;-81
2023/02/20 13:05:22;;;;;;;10.18;6.40;;;;;;;;;;10351739;28;20093;-82
2023/02/20 13:10:25;;;;;;;12.48;7.30;;;;;;;;;;10352852;28;20077;-82
2023/02/20 13:15:32;;;;;;;8.27;5.40;;;;;;;;;;10351287;28;20092;-82
2023/02/20 13:20:39;;;;;;;8.02;5.38;;;;;;;;;;10349893;28;20133;-82
2023/02/20 13:25:42;;;;;;;9.32;5.63;;;;;;;;;;10350767;28;20038;-83
2023/02/20 13:30:43;;;;;;;9.63;6.07;;;;;;;;;;10351833;28;20022;-83
2023/02/20 13:35:49;;;;;;;11.27;6.63;;;;;;;;;;10354105;28;20037;-83
2023/02/20 13:40:57;;;;;;;12.38;7.82;;;;;;;;;;10350882;28;20066;-83
2023/02/20 13:46:13;;;;;;;8.73;5.70;;;;;;;;;;10348049;28;20053;-83
2023/02/20 13:51:14;;;;;;;12.35;8.77;;;;;;;;;;10349203;28;20040;-82
2023/02/20 13:56:15;;;;;;;;;;;;;;;;;;10349987;28;20050;-83
2023/02/20 14:01:16;;;;;;;11.35;8.98;;;;;;;;;;10349287;28;20324;-82
2023/02/20 14:06:20;;;;;;;19.08;12.85;;;;;;;;;;10348704;28;20056;-82
2023/02/20 14:11:31;;;;;;;14.60;9.50;;;;;;;;;;10349234;28;20341;-82
2023/02/20 14:16:34;;;;;;;13.00;9.23;;;;;;;;;;10348558;28;20073;-82
2023/02/20 14:21:36;;;;;;;14.32;11.32;;;;;;;;;;10349780;28;20121;-82
2023/02/20 14:26:37;;;;;;;13.88;10.48;;;;;;;;;;10351720;28;20101;-82
2023/02/20 14:31:38;;;;;;;15.40;10.50;;;;;;;;;;10351303;28;20500;-83
2023/02/20 14:36:39;;;;;;;;;;;;;;;;;;10353960;28;20061;-83
2023/02/20 14:41:50;;;;;;;10.05;8.10;;;;;;;;;;10369690;28;19914;-82
2023/02/20 14:46:53;;;;;;;12.20;9.13;;;;;;;;;;10360521;28;20049;-82
2023/02/20 14:52:09;;;;;;;15.57;10.93;;;;;;;;;;10348638;28;20037;-82
2023/02/20 14:57:14;;;;;;;17.63;13.63;;;;;;;;;;10351085;28;20020;-86
2023/02/20 15:02:23;;;;;;;12.90;9.70;;;;;;;;;;10382843;28;20049;-83
2023/02/20 15:07:26;;;;;;;16.00;12.85;;;;;;;;;;10362035;28;20037;-83
2023/02/20 15:12:27;;;;;;;17.02;12.52;;;;;;;;;;10350359;28;20049;-82
2023/02/20 15:17:29;;;;;;;20.05;15.07;;;;;;;;;;10355109;28;20535;-82
2023/02/20 15:22:32;;;;;;;18.23;15.15;;;;;;;;;;10353424;28;20133;-83
2023/02/20 15:27:33;;;;;;;17.02;12.75;;;;;;;;;;10355451;28;20077;-82
2023/02/20 15:32:35;;;;;;;20.08;15.88;;;;;;;;;;10354590;28;20185;-82
2023/02/20 15:37:36;;;;;;;12.85;10.25;;;;;;;;;;10354098;28;20041;-82
2023/02/20 15:42:37;;;;;;;21.67;16.33;;;;;;;;;;10356372;28;20069;-84
2023/02/20 15:47:38;;;;;;;15.82;12.90;;;;;;;;;;10351652;28;20088;-81
2023/02/20 15:52:39;;;;;;;22.60;16.38;;;;;;;;;;10349571;28;20503;-82
2023/02/20 15:57:40;;;;;;;13.38;11.85;;;;;;;;;;10351473;28;20058;-82
2023/02/20 16:02:41;;;;;;;19.02;15.07;;;;;;;;;;10351386;28;20499;-82
2023/02/20 16:07:42;;;;;;;18.08;14.02;;;;;;;;;;10351052;28;20026;-82
2023/02/20 16:12:43;;;;;;;10.65;8.15;;;;;;;;;;10352249;28;20057;-82
2023/02/20 16:17:44;;;;;;;;;;;;;;;;;;10350321;28;20073;-82
2023/02/20 16:22:45;;;;;;;9.88;7.22;;;;;;;;;;10352274;28;19910;-82
2023/02/20 16:27:51;;;;;;;;;;;;;;;;;;10356332;28;20090;-83
2023/02/20 16:32:52;;;;;;;18.10;13.75;;;;;;;;;;10355601;28;19913;-83
2023/02/20 16:37:54;;;;;;;13.60;11.48;;;;;;;;;;10350926;28;20046;-82
2023/02/20 16:42:54;;;;;;;;;;;;;;;;;;10352903;28;20115;-82
2023/02/20 16:47:56;;;;;;;17.92;13.98;;;;;;;;;;10351780;28;20017;-83
2023/02/20 16:52:58;;;;;;;19.70;13.68;;;;;;;;;;10350819;28;20035;-83
2023/02/20 16:58:00;;;;;;;17.15;13.23;;;;;;;;;;10353102;28;20086;-82
2023/02/20 17:03:01;;;;;;;17.15;13.05;;;;;;;;;;10366319;28;20034;-82
2023/02/20 17:08:03;;;;;;;17.67;13.73;;;;;;;;;;10360130;28;20022;-82
2023/02/20 17:13:04;;;;;;;17.60;12.63;;;;;;;;;;10350252;28;20034;-82
2023/02/20 17:18:05;;;;;;;;;;;;;;;;;;10350579;28;20038;-82
2023/02/20 17:23:06;;;;;;;16.63;11.95;;;;;;;;;;10348138;28;19910;-82
2023/02/20 17:28:07;;;;;;;13.93;9.65;;;;;;;;;;10347334;28;20053;-82
2023/02/20 17:33:08;;;;;;;17.08;12.32;;;;;;;;;;10347060;28;20053;-82
2023/02/20 17:38:09;;;;;;;18.38;14.82;;;;;;;;;;10347620;28;20088;-83
2023/02/20 17:43:11;;;;;;;11.85;10.05;;;;;;;;;;10345664;28;20069;-83
2023/02/20 17:48:12;;;;;;;19.55;15.38;;;;;;;;;;10345045;28;20039;-82
2023/02/20 17:53:13;;;;;;;18.65;14.40;;;;;;;;;;10346342;28;20053;-83
2023/02/20 17:58:14;;;;;;;10.38;8.75;;;;;;;;;;10344111;28;20084;-83
2023/02/20 18:03:15;;;;;;;11.55;9.70;;;;;;;;;;10344254;28;20114;-82
2023/02/20 18:08:17;;;;;;;;;;;;;;;;;;10346348;28;20062;-82
2023/02/20 18:13:18;;;;;;;21.63;16.25;;;;;;;;;;10344232;28;19976;-82
2023/02/20 18:18:20;;;;;;;15.05;13.43;;;;;;;;;;10452975;23;20034;-84
2023/02/20 18:23:21;;;;;;;10.85;9.48;;;;;;;;;;10459458;28;20017;-83
2023/02/20 18:28:21;;;;;;;;;;;;;;;;;;10436013;28;20029;-83
2023/02/20 18:33:23;;;;;;;9.43;7.60;;;;;;;;;;10421754;28;19909;-83
2023/02/20 18:38:24;;;;;;;;;;;;;;;;;;10420768;28;20499;-83
2023/02/20 18:43:26;;;;;;;22.02;14.23;;;;;;;;;;10419364;28;19909;-83
2023/02/20 18:48:27;;;;;;;16.85;11.60;;;;;;;;;;10419950;28;20021;-83
2023/02/20 18:53:28;;;;;;;14.18;11.75;;;;;;;;;;10423664;28;20072;-83
2023/02/20 18:58:29;;;;;;;;;;;;;;;;;;10431045;28;20032;-83
2023/02/20 19:03:30;;;;;;;12.25;9.73;;;;;;;;;;10422535;28;19909;-84
2023/02/20 19:08:31;;;;;;;16.60;11.88;;;;;;;;;;10427168;28;20065;-84
2023/02/20 19:13:32;;;;;;;14.77;11.63;;;;;;;;;;10434456;28;20045;-81
2023/02/20 19:18:33;;;;;;;;;;;;;;;;;;10447615;28;20112;-83
2023/02/20 19:23:35;;;;;;;10.27;8.05;;;;;;;;;;10432589;28;19909;-83
2023/02/20 19:28:36;;;;;;;15.25;11.75;;;;;;;;;;10429540;28;20576;-83
2023/02/20 19:33:37;;;;;;;10.60;8.63;;;;;;;;;;10430001;28;20034;-83
2023/02/20 19:38:38;;;;;;;14.77;13.02;;;;;;;;;;10433193;28;20037;-84
2023/02/20 19:43:40;;;;;;;11.23;9.32;;;;;;;;;;10447624;28;20029;-82
2023/02/20 19:48:43;;;;;;;14.43;10.80;;;;;;;;;;10447499;28;20030;-83
2023/02/20 19:53:44;;;;;;;15.63;12.40;;;;;;;;;;10430130;28;20040;-83
2023/02/20 19:58:45;;;;;;;;;;;;;;;;;;10430324;28;20029;-84
2023/02/20 20:03:47;;;;;;;17.27;13.57;;;;;;;;;;10435080;28;19909;-84
2023/02/20 20:08:48;;;;;;;18.65;12.05;;;;;;;;;;10435150;28;20399;-83
2023/02/20 20:13:49;;;;;;;14.73;11.85;;;;;;;;;;10432908;28;20052;-84
2023/02/20 20:18:51;;;;;;;13.23;10.68;;;;;;;;;;10435106;28;20041;-84
